createdAt,value
2023-05-18T00:00:23.760Z,8.54
2023-05-18T00:01:23.745Z,8.54
2023-05-18T00:02:23.835Z,8.55
2023-05-18T00:03:23.829Z,8.52
2023-05-18T00:04:23.739Z,8.54
2023-05-18T00:05:23.691Z,8.57
2023-05-18T00:06:23.667Z,8.57
2023-05-18T00:07:23.673Z,8.58
2023-05-18T00:08:23.664Z,8.58
2023-05-18T00:09:23.661Z,8.60
2023-05-18T00:10:23.701Z,8.57
2023-05-18T00:11:23.647Z,8.55
2023-05-18T00:12:23.618Z,8.55
2023-05-18T00:13:23.604Z,8.54
2023-05-18T00:14:23.594Z,8.50
2023-05-18T00:15:23.588Z,8.47
2023-05-18T00:16:23.620Z,8.47
2023-05-18T00:17:23.732Z,8.49
2023-05-18T00:18:23.553Z,8.49
2023-05-18T00:19:23.640Z,8.46
2023-05-18T00:20:23.528Z,8.46
2023-05-18T00:21:23.534Z,8.46
2023-05-18T00:22:23.506Z,8.45
2023-05-18T00:23:23.484Z,8.45
2023-05-18T00:24:23.491Z,8.46
2023-05-18T00:25:23.467Z,8.45
2023-05-18T00:26:23.481Z,8.45
2023-05-18T00:27:23.448Z,8.45
2023-05-18T00:28:23.436Z,8.46
2023-05-18T00:29:23.430Z,8.49
2023-05-18T00:30:23.428Z,8.49
2023-05-18T00:31:23.458Z,8.49
2023-05-18T00:32:23.402Z,8.52
2023-05-18T00:33:23.402Z,8.54
2023-05-18T00:34:23.382Z,8.55
2023-05-18T00:35:23.395Z,8.57
2023-05-18T00:36:23.361Z,8.58
2023-05-18T00:37:23.343Z,8.58
2023-05-18T00:38:23.362Z,8.57
2023-05-18T00:39:23.321Z,8.57
2023-05-18T00:40:23.316Z,8.57
2023-05-18T00:41:23.292Z,8.55
2023-05-18T00:42:23.313Z,8.57
2023-05-18T00:43:23.273Z,8.54
2023-05-18T00:44:23.274Z,8.52
2023-05-18T00:45:23.255Z,8.52
2023-05-18T00:46:23.374Z,8.52
2023-05-18T00:47:23.246Z,8.50
2023-05-18T00:48:23.254Z,8.50
2023-05-18T00:49:23.258Z,8.47
2023-05-18T00:50:23.213Z,8.46
2023-05-18T00:51:23.224Z,8.42
2023-05-18T00:52:23.196Z,8.45
2023-05-18T00:53:23.203Z,8.40
2023-05-18T00:54:23.173Z,8.39
2023-05-18T00:55:23.157Z,8.39
2023-05-18T00:56:23.186Z,8.37
2023-05-18T00:57:23.140Z,8.36
2023-05-18T00:58:23.136Z,8.32
2023-05-18T00:59:23.110Z,8.31
2023-05-18T01:00:23.101Z,8.31
2023-05-18T01:01:23.122Z,8.29
2023-05-18T01:02:23.182Z,8.29
2023-05-18T01:03:23.081Z,8.29
2023-05-18T01:04:23.080Z,8.29
2023-05-18T01:05:23.036Z,8.31
2023-05-18T01:06:23.037Z,8.34
2023-05-18T01:07:23.034Z,8.34
2023-05-18T01:08:23.026Z,8.36
2023-05-18T01:09:23.022Z,8.34
2023-05-18T01:10:22.998Z,8.36
2023-05-18T01:11:23.011Z,8.32
2023-05-18T01:12:22.971Z,8.31
2023-05-18T01:13:22.964Z,8.31
2023-05-18T01:14:22.951Z,8.31
2023-05-18T01:15:22.947Z,8.31
2023-05-18T01:16:23.009Z,8.31
2023-05-18T01:17:22.971Z,8.29
2023-05-18T01:18:22.911Z,8.27
2023-05-18T01:19:22.975Z,8.27
2023-05-18T01:20:22.882Z,8.27
2023-05-18T01:21:22.870Z,8.25
2023-05-18T01:22:22.870Z,8.24
2023-05-18T01:23:22.852Z,8.24
2023-05-18T01:24:22.842Z,8.21
2023-05-18T01:25:22.822Z,8.21
2023-05-18T01:26:22.828Z,8.18
2023-05-18T01:27:23.045Z,8.17
2023-05-18T01:28:22.809Z,8.14
2023-05-18T01:29:22.786Z,8.12
2023-05-18T01:30:22.783Z,8.09
2023-05-18T01:31:22.826Z,8.07
2023-05-18T01:32:22.792Z,8.07
2023-05-18T01:33:22.733Z,8.06
2023-05-18T01:34:22.760Z,8.06
2023-05-18T01:35:22.724Z,8.06
2023-05-18T01:36:22.710Z,8.02
2023-05-18T01:37:22.729Z,8.00
2023-05-18T01:38:22.696Z,7.96
2023-05-18T01:39:22.677Z,7.95
2023-05-18T01:40:22.686Z,7.94
2023-05-18T01:41:22.715Z,7.91
2023-05-18T01:42:22.645Z,7.89
2023-05-18T01:43:22.623Z,7.86
2023-05-18T01:44:22.628Z,7.84
2023-05-18T01:45:22.614Z,7.82
2023-05-18T01:46:22.660Z,7.82
2023-05-18T01:47:22.588Z,7.82
2023-05-18T01:48:22.560Z,7.81
2023-05-18T01:49:22.563Z,7.77
2023-05-18T01:50:22.616Z,7.74
2023-05-18T01:51:22.546Z,7.74
2023-05-18T01:52:22.526Z,7.71
2023-05-18T01:53:22.522Z,7.67
2023-05-18T01:54:22.490Z,7.67
2023-05-18T01:55:22.497Z,7.63
2023-05-18T01:56:22.482Z,7.63
2023-05-18T01:57:22.481Z,7.58
2023-05-18T01:58:22.464Z,7.55
2023-05-18T01:59:22.465Z,7.54
2023-05-18T02:00:22.468Z,7.52
2023-05-18T02:01:22.565Z,7.54
2023-05-18T02:02:22.512Z,7.54
2023-05-18T02:03:22.603Z,7.51
2023-05-18T02:04:22.399Z,7.51
2023-05-18T02:05:22.396Z,7.51
2023-05-18T02:06:22.360Z,7.51
2023-05-18T02:07:22.391Z,7.45
2023-05-18T02:08:22.397Z,7.44
2023-05-18T02:09:22.358Z,7.44
2023-05-18T02:10:22.338Z,7.44
2023-05-18T02:11:22.331Z,7.42
2023-05-18T02:12:22.321Z,7.39
2023-05-18T02:13:22.317Z,7.37
2023-05-18T02:14:22.293Z,7.36
2023-05-18T02:15:22.292Z,7.32
2023-05-18T02:16:22.345Z,7.32
2023-05-18T02:17:22.350Z,7.29
2023-05-18T02:18:22.252Z,7.27
2023-05-18T02:19:22.340Z,7.23
2023-05-18T02:20:22.220Z,7.19
2023-05-18T02:21:22.245Z,7.18
2023-05-18T02:22:22.221Z,7.21
2023-05-18T02:23:22.185Z,7.19
2023-05-18T02:24:22.185Z,7.21
2023-05-18T02:25:22.170Z,7.19
2023-05-18T02:26:22.151Z,7.19
2023-05-18T02:27:22.168Z,7.15
2023-05-18T02:28:22.132Z,7.15
2023-05-18T02:29:22.139Z,7.15
2023-05-18T02:30:22.131Z,7.14
2023-05-18T02:31:22.259Z,7.12
2023-05-18T02:32:22.092Z,7.09
2023-05-18T02:33:22.087Z,7.05
2023-05-18T02:34:22.067Z,7.04
2023-05-18T02:35:22.079Z,7.01
2023-05-18T02:36:22.066Z,7.00
2023-05-18T02:37:22.040Z,6.97
2023-05-18T02:38:22.043Z,6.94
2023-05-18T02:39:22.017Z,6.93
2023-05-18T02:40:22.022Z,6.90
2023-05-18T02:41:22.067Z,6.89
2023-05-18T02:42:21.986Z,6.86
2023-05-18T02:43:21.969Z,6.90
2023-05-18T02:44:21.951Z,6.90
2023-05-18T02:45:21.958Z,6.89
2023-05-18T02:46:22.067Z,6.91
2023-05-18T02:47:21.936Z,6.91
2023-05-18T02:48:21.921Z,6.91
2023-05-18T02:49:21.941Z,6.91
2023-05-18T02:50:21.894Z,6.89
2023-05-18T02:51:21.894Z,6.86
2023-05-18T02:52:21.881Z,6.83
2023-05-18T02:53:21.858Z,6.82
2023-05-18T02:54:21.878Z,6.81
2023-05-18T02:55:21.843Z,6.81
2023-05-18T02:56:21.833Z,6.78
2023-05-18T02:57:21.828Z,6.71
2023-05-18T02:58:21.843Z,6.69
2023-05-18T02:59:21.798Z,6.69
2023-05-18T03:00:21.798Z,6.68
2023-05-18T03:01:21.856Z,6.69
2023-05-18T03:02:21.807Z,6.69
2023-05-18T03:03:21.827Z,6.65
2023-05-18T03:04:21.784Z,6.65
2023-05-18T03:05:21.754Z,6.64
2023-05-18T03:06:21.746Z,6.57
2023-05-18T03:07:21.714Z,6.55
2023-05-18T03:08:21.705Z,6.54
2023-05-18T03:09:21.691Z,6.55
2023-05-18T03:10:21.708Z,6.55
2023-05-18T03:11:21.679Z,6.54
2023-05-18T03:12:21.696Z,6.50
2023-05-18T03:13:21.665Z,6.51
2023-05-18T03:14:21.642Z,6.45
2023-05-18T03:15:21.642Z,6.42
2023-05-18T03:16:21.635Z,6.42
2023-05-18T03:17:21.662Z,6.45
2023-05-18T03:18:21.592Z,6.45
2023-05-18T03:19:21.745Z,6.43
2023-05-18T03:20:21.589Z,6.42
2023-05-18T03:21:21.552Z,6.42
2023-05-18T03:22:21.584Z,6.40
2023-05-18T03:23:21.552Z,6.42
2023-05-18T03:24:21.551Z,6.42
2023-05-18T03:25:21.533Z,6.43
2023-05-18T03:26:21.518Z,6.43
2023-05-18T03:27:21.519Z,6.40
2023-05-18T03:28:21.516Z,6.39
2023-05-18T03:29:21.497Z,6.39
2023-05-18T03:30:21.463Z,6.39
2023-05-18T03:31:21.493Z,6.38
2023-05-18T03:32:21.451Z,6.39
2023-05-18T03:33:21.461Z,6.36
2023-05-18T03:34:21.440Z,6.33
2023-05-18T03:35:21.431Z,6.33
2023-05-18T03:36:21.418Z,6.35
2023-05-18T03:37:21.393Z,6.35
2023-05-18T03:38:21.387Z,6.33
2023-05-18T03:39:21.384Z,6.36
2023-05-18T03:40:21.411Z,6.35
2023-05-18T03:41:21.369Z,6.30
2023-05-18T03:42:21.350Z,6.28
2023-05-18T03:43:21.361Z,6.21
2023-05-18T03:44:21.355Z,6.21
2023-05-18T03:45:21.323Z,6.24
2023-05-18T03:46:21.409Z,6.25
2023-05-18T03:47:21.286Z,6.25
2023-05-18T03:48:21.284Z,6.25
2023-05-18T03:49:21.275Z,6.24
2023-05-18T03:50:21.276Z,6.25
2023-05-18T03:51:21.238Z,6.24
2023-05-18T03:52:21.233Z,6.24
2023-05-18T03:53:21.232Z,6.24
2023-05-18T03:54:21.241Z,6.20
2023-05-18T03:55:21.203Z,6.20
2023-05-18T03:56:21.195Z,6.19
2023-05-18T03:57:21.171Z,6.19
2023-05-18T03:58:21.159Z,6.17
2023-05-18T03:59:21.160Z,6.17
2023-05-18T04:00:21.152Z,6.16
2023-05-18T04:01:21.115Z,6.16
2023-05-18T04:02:21.150Z,6.16
2023-05-18T04:03:21.228Z,6.19
2023-05-18T04:04:21.164Z,6.16
2023-05-18T04:05:21.103Z,6.17
2023-05-18T04:06:21.088Z,6.19
2023-05-18T04:07:21.081Z,6.19
2023-05-18T04:08:21.075Z,6.20
2023-05-18T04:09:21.061Z,6.24
2023-05-18T04:10:21.069Z,6.25
2023-05-18T04:11:21.032Z,6.27
2023-05-18T04:12:21.019Z,6.27
2023-05-18T04:13:21.012Z,6.27
2023-05-18T04:14:21.006Z,6.30
2023-05-18T04:15:20.991Z,6.32
2023-05-18T04:16:21.013Z,6.33
2023-05-18T04:17:20.958Z,6.30
2023-05-18T04:18:20.967Z,6.30
2023-05-18T04:19:20.968Z,6.32
2023-05-18T04:20:20.918Z,6.30
2023-05-18T04:21:20.919Z,6.28
2023-05-18T04:22:20.915Z,6.28
2023-05-18T04:23:20.913Z,6.27
2023-05-18T04:24:20.891Z,6.28
2023-05-18T04:25:20.879Z,6.28
2023-05-18T04:26:20.865Z,6.30
2023-05-18T04:27:20.863Z,6.30
2023-05-18T04:28:20.867Z,6.32
2023-05-18T04:29:20.818Z,6.33
2023-05-18T04:30:20.836Z,6.33
2023-05-18T04:31:20.851Z,6.35
2023-05-18T04:32:20.837Z,6.33
2023-05-18T04:33:20.806Z,6.33
2023-05-18T04:34:20.778Z,6.36
2023-05-18T04:35:20.763Z,6.36
2023-05-18T04:36:21.400Z,6.36
2023-05-18T04:37:20.749Z,6.38
2023-05-18T04:38:20.743Z,6.36
2023-05-18T04:39:20.705Z,6.39
2023-05-18T04:40:20.716Z,6.39
2023-05-18T04:41:20.736Z,6.39
2023-05-18T04:42:20.717Z,6.38
2023-05-18T04:43:20.671Z,6.38
2023-05-18T04:44:20.677Z,6.40
2023-05-18T04:45:20.665Z,6.40
2023-05-18T04:46:20.690Z,6.42
2023-05-18T04:47:20.648Z,6.42
2023-05-18T04:48:20.633Z,6.43
2023-05-18T04:49:20.628Z,6.46
2023-05-18T04:50:20.605Z,6.48
2023-05-18T04:51:20.615Z,6.48
2023-05-18T04:52:20.600Z,6.48
2023-05-18T04:53:20.573Z,6.48
2023-05-18T04:54:20.569Z,6.53
2023-05-18T04:55:20.559Z,6.54
2023-05-18T04:56:20.604Z,6.54
2023-05-18T04:57:20.533Z,6.57
2023-05-18T04:58:20.532Z,6.57
2023-05-18T04:59:20.514Z,6.60
2023-05-18T05:00:20.505Z,6.61
2023-05-18T05:01:20.552Z,6.63
2023-05-18T05:02:20.553Z,6.63
2023-05-18T05:03:20.549Z,6.65
2023-05-18T05:04:20.461Z,6.68
2023-05-18T05:05:20.432Z,6.69
2023-05-18T05:06:20.435Z,6.69
2023-05-18T05:07:20.446Z,6.72
2023-05-18T05:08:20.419Z,6.73
2023-05-18T05:09:20.416Z,6.76
2023-05-18T05:10:20.411Z,6.79
2023-05-18T05:11:20.374Z,6.81
2023-05-18T05:12:20.371Z,6.82
2023-05-18T05:13:21.066Z,6.83
2023-05-18T05:14:20.363Z,6.86
2023-05-18T05:15:20.341Z,6.87
2023-05-18T05:16:20.377Z,6.90
2023-05-18T05:17:20.305Z,6.90
2023-05-18T05:18:20.358Z,6.91
2023-05-18T05:19:20.426Z,6.91
2023-05-18T05:20:20.376Z,6.94
2023-05-18T05:21:20.302Z,6.97
2023-05-18T05:22:20.312Z,6.97
2023-05-18T05:23:20.294Z,7.00
2023-05-18T05:24:20.332Z,7.00
2023-05-18T05:25:20.399Z,7.04
2023-05-18T05:26:20.355Z,7.07
2023-05-18T05:27:20.297Z,7.08
2023-05-18T05:28:20.279Z,7.09
2023-05-18T05:29:20.241Z,7.12
2023-05-18T05:30:22.052Z,7.15
2023-05-18T05:31:20.324Z,7.18
2023-05-18T05:32:20.412Z,7.21
2023-05-18T05:33:20.195Z,7.21
2023-05-18T05:34:20.331Z,7.26
2023-05-18T05:35:20.211Z,7.27
2023-05-18T05:36:20.210Z,7.27
2023-05-18T05:37:20.221Z,7.30
2023-05-18T05:38:20.245Z,7.32
2023-05-18T05:39:20.137Z,7.33
2023-05-18T05:40:20.095Z,7.34
2023-05-18T05:41:20.128Z,7.37
2023-05-18T05:42:20.068Z,7.39
2023-05-18T05:43:20.055Z,7.42
2023-05-18T05:44:20.255Z,7.44
2023-05-18T05:45:20.017Z,7.47
2023-05-18T05:46:20.133Z,7.48
2023-05-18T05:47:20.150Z,7.50
2023-05-18T05:48:20.168Z,7.52
2023-05-18T05:49:20.059Z,7.54
2023-05-18T05:50:20.033Z,7.57
2023-05-18T05:51:20.018Z,7.60
2023-05-18T05:52:20.271Z,7.63
2023-05-18T05:53:19.988Z,7.66
2023-05-18T05:54:19.962Z,7.67
2023-05-18T05:55:20.180Z,7.70
2023-05-18T05:56:20.030Z,7.73
2023-05-18T05:57:19.907Z,7.74
2023-05-18T05:58:19.898Z,7.76
2023-05-18T05:59:19.920Z,7.79
2023-05-18T06:00:20.235Z,7.85
2023-05-18T06:01:19.887Z,7.86
2023-05-18T06:02:19.936Z,7.88
2023-05-18T06:03:19.892Z,7.92
2023-05-18T06:04:19.944Z,7.94
2023-05-18T06:05:20.129Z,7.95
2023-05-18T06:06:19.840Z,7.95
2023-05-18T06:07:19.792Z,7.99
2023-05-18T06:08:19.787Z,8.02
2023-05-18T06:09:19.805Z,8.04
2023-05-18T06:10:20.084Z,8.07
2023-05-18T06:11:19.739Z,8.10
2023-05-18T06:12:19.873Z,8.13
2023-05-18T06:13:19.870Z,8.17
2023-05-18T06:14:19.712Z,8.21
2023-05-18T06:15:19.891Z,8.25
2023-05-18T06:16:19.764Z,8.28
2023-05-18T06:17:21.549Z,8.29
2023-05-18T06:18:19.730Z,8.32
2023-05-18T06:19:20.768Z,8.37
2023-05-18T06:20:19.677Z,8.39
2023-05-18T06:21:19.740Z,8.43
2023-05-18T06:22:19.624Z,8.47
2023-05-18T06:23:19.642Z,8.49
2023-05-18T06:24:19.636Z,8.50
2023-05-18T06:25:19.726Z,8.52
2023-05-18T06:26:19.596Z,8.54
2023-05-18T06:27:19.622Z,8.55
2023-05-18T06:28:19.616Z,8.57
2023-05-18T06:29:19.598Z,8.61
2023-05-18T06:30:19.644Z,8.65
2023-05-18T06:31:19.533Z,8.67
2023-05-18T06:32:19.592Z,8.71
2023-05-18T06:33:19.636Z,8.75
2023-05-18T06:34:19.628Z,8.79
2023-05-18T06:35:19.497Z,8.80
2023-05-18T06:36:19.503Z,8.83
2023-05-18T06:37:19.484Z,8.88
2023-05-18T06:38:19.461Z,8.91
2023-05-18T06:39:19.494Z,8.93
2023-05-18T06:40:19.469Z,8.96
2023-05-18T06:41:19.436Z,8.97
2023-05-18T06:42:19.444Z,9.00
2023-05-18T06:43:19.417Z,9.01
2023-05-18T06:44:19.414Z,9.04
2023-05-18T06:45:19.400Z,9.08
2023-05-18T06:46:19.414Z,9.12
2023-05-18T06:47:19.415Z,9.15
2023-05-18T06:48:19.365Z,9.20
2023-05-18T06:49:19.345Z,9.24
2023-05-18T06:50:19.355Z,9.30
2023-05-18T06:51:19.407Z,9.34
2023-05-18T06:52:19.357Z,9.38
2023-05-18T06:53:19.348Z,9.42
2023-05-18T06:54:19.397Z,9.45
2023-05-18T06:55:19.275Z,9.50
2023-05-18T06:56:19.290Z,9.55
2023-05-18T06:57:19.372Z,9.60
2023-05-18T06:58:19.288Z,9.63
2023-05-18T06:59:20.408Z,9.68
2023-05-18T07:00:19.301Z,9.73
2023-05-18T07:01:19.351Z,9.74
2023-05-18T07:02:19.253Z,9.77
2023-05-18T07:03:19.323Z,9.81
2023-05-18T07:04:19.268Z,9.86
2023-05-18T07:05:19.269Z,9.89
2023-05-18T07:06:19.275Z,9.91
2023-05-18T07:07:19.207Z,9.93
2023-05-18T07:08:19.409Z,9.98
2023-05-18T07:09:19.149Z,9.99
2023-05-18T07:10:19.191Z,10.02
2023-05-18T07:11:19.097Z,10.07
2023-05-18T07:12:19.834Z,10.09
2023-05-18T07:13:19.172Z,10.14
2023-05-18T07:14:19.115Z,10.16
2023-05-18T07:15:19.166Z,10.18
2023-05-18T07:16:19.108Z,10.24
2023-05-18T07:17:19.124Z,10.25
2023-05-18T07:18:19.123Z,10.26
2023-05-18T07:19:19.381Z,10.29
2023-05-18T07:20:19.113Z,10.32
2023-05-18T07:21:18.984Z,10.38
2023-05-18T07:22:19.096Z,10.43
2023-05-18T07:23:18.991Z,10.49
2023-05-18T07:24:18.978Z,10.49
2023-05-18T07:25:19.020Z,10.52
2023-05-18T07:26:18.952Z,10.57
2023-05-18T07:27:19.004Z,10.62
2023-05-18T07:28:18.914Z,10.65
2023-05-18T07:29:18.987Z,10.68
2023-05-18T07:30:19.014Z,10.73
2023-05-18T07:31:18.961Z,10.81
2023-05-18T07:32:18.939Z,10.86
2023-05-18T07:33:19.037Z,10.88
2023-05-18T07:34:18.985Z,10.94
2023-05-18T07:35:18.973Z,10.95
2023-05-18T07:36:18.920Z,10.99
2023-05-18T07:37:18.840Z,11.03
2023-05-18T07:38:18.971Z,11.09
2023-05-18T07:39:19.584Z,11.12
2023-05-18T07:40:18.927Z,11.17
2023-05-18T07:41:18.833Z,11.21
2023-05-18T07:42:18.803Z,11.24
2023-05-18T07:43:18.771Z,11.30
2023-05-18T07:44:18.921Z,11.36
2023-05-18T07:45:18.756Z,11.41
2023-05-18T07:46:18.930Z,11.44
2023-05-18T07:47:18.790Z,11.44
2023-05-18T07:48:18.778Z,11.48
2023-05-18T07:49:18.870Z,11.51
2023-05-18T07:50:18.765Z,11.56
2023-05-18T07:51:18.681Z,11.60
2023-05-18T07:52:18.705Z,11.64
2023-05-18T07:53:18.703Z,11.70
2023-05-18T07:54:18.745Z,11.75
2023-05-18T07:55:18.661Z,11.81
2023-05-18T07:56:18.635Z,11.85
2023-05-18T07:57:18.621Z,11.90
2023-05-18T07:58:18.686Z,11.96
2023-05-18T07:59:18.668Z,12.01
2023-05-18T08:00:18.665Z,12.05
2023-05-18T08:01:18.713Z,12.12
2023-05-18T08:02:18.637Z,12.18
2023-05-18T08:03:18.770Z,12.25
2023-05-18T08:04:18.686Z,12.30
2023-05-18T08:05:18.635Z,12.36
2023-05-18T08:06:18.528Z,12.41
2023-05-18T08:07:18.564Z,12.46
2023-05-18T08:08:18.576Z,12.51
2023-05-18T08:09:18.536Z,12.56
2023-05-18T08:10:18.556Z,12.62
2023-05-18T08:11:18.559Z,12.67
2023-05-18T08:12:18.573Z,12.73
2023-05-18T08:13:18.472Z,12.79
2023-05-18T08:14:18.420Z,12.84
2023-05-18T08:15:18.420Z,12.88
2023-05-18T08:16:18.682Z,12.92
2023-05-18T08:17:18.383Z,12.96
2023-05-18T08:18:18.379Z,13.03
2023-05-18T08:19:18.563Z,13.06
2023-05-18T08:20:19.095Z,13.10
2023-05-18T08:21:18.354Z,13.16
2023-05-18T08:22:19.447Z,13.19
2023-05-18T08:23:18.330Z,13.25
2023-05-18T08:24:18.713Z,13.29
2023-05-18T08:25:18.340Z,13.35
2023-05-18T08:26:18.466Z,13.39
2023-05-18T08:27:18.341Z,13.44
2023-05-18T08:28:18.264Z,13.46
2023-05-18T08:29:18.300Z,13.47
2023-05-18T08:30:18.314Z,13.50
2023-05-18T08:31:18.386Z,13.50
2023-05-18T08:32:18.354Z,13.53
2023-05-18T08:33:18.290Z,13.54
2023-05-18T08:34:18.249Z,13.55
2023-05-18T08:35:18.332Z,13.57
2023-05-18T08:36:18.374Z,13.63
2023-05-18T08:37:18.234Z,13.68
2023-05-18T08:38:18.263Z,13.73
2023-05-18T08:39:18.150Z,13.76
2023-05-18T08:40:18.290Z,13.80
2023-05-18T08:41:18.124Z,13.83
2023-05-18T08:42:18.141Z,13.84
2023-05-18T08:43:18.148Z,13.87
2023-05-18T08:44:18.135Z,13.90
2023-05-18T08:45:18.195Z,13.96
2023-05-18T08:46:18.102Z,14.05
2023-05-18T08:47:18.072Z,14.13
2023-05-18T08:48:18.115Z,14.17
2023-05-18T08:49:18.083Z,14.21
2023-05-18T08:50:18.050Z,14.26
2023-05-18T08:51:18.072Z,14.27
2023-05-18T08:52:18.026Z,14.29
2023-05-18T08:53:18.191Z,14.34
2023-05-18T08:54:18.000Z,14.36
2023-05-18T08:55:18.029Z,14.41
2023-05-18T08:56:18.144Z,14.44
2023-05-18T08:57:17.988Z,14.52
2023-05-18T08:58:17.968Z,14.63
2023-05-18T08:59:18.008Z,14.72
2023-05-18T09:00:17.965Z,14.78
2023-05-18T09:01:18.017Z,14.83
2023-05-18T09:02:17.903Z,14.86
2023-05-18T09:03:17.974Z,14.87
2023-05-18T09:04:17.919Z,14.90
2023-05-18T09:05:17.998Z,14.91
2023-05-18T09:06:17.934Z,14.93
2023-05-18T09:07:17.899Z,14.97
2023-05-18T09:08:17.905Z,14.98
2023-05-18T09:09:17.892Z,15.03
2023-05-18T09:10:18.011Z,15.09
2023-05-18T09:11:17.821Z,15.15
2023-05-18T09:12:17.804Z,15.20
2023-05-18T09:13:17.799Z,15.25
2023-05-18T09:14:17.851Z,15.31
2023-05-18T09:15:17.783Z,15.35
2023-05-18T09:16:17.779Z,15.41
2023-05-18T09:17:17.879Z,15.48
2023-05-18T09:18:17.777Z,15.53
2023-05-18T09:19:17.876Z,15.56
2023-05-18T09:20:17.701Z,15.60
2023-05-18T09:21:17.718Z,15.62
2023-05-18T09:22:17.688Z,15.67
2023-05-18T09:23:18.389Z,15.67
2023-05-18T09:24:17.722Z,15.74
2023-05-18T09:25:18.729Z,15.74
2023-05-18T09:26:17.707Z,15.77
2023-05-18T09:27:19.472Z,15.80
2023-05-18T09:28:17.643Z,15.89
2023-05-18T09:29:18.362Z,15.96
2023-05-18T09:30:17.623Z,16.03
2023-05-18T09:31:19.174Z,16.11
2023-05-18T09:32:17.565Z,16.26
2023-05-18T09:33:18.609Z,16.36
2023-05-18T09:34:17.578Z,16.45
2023-05-18T09:35:18.909Z,16.55
2023-05-18T09:36:17.562Z,16.66
2023-05-18T09:37:18.507Z,16.67
2023-05-18T09:38:17.568Z,16.67
2023-05-18T09:39:18.108Z,16.69
2023-05-18T09:40:17.474Z,16.72
2023-05-18T09:41:17.831Z,16.75
2023-05-18T09:42:17.480Z,16.73
2023-05-18T09:43:18.138Z,16.80
2023-05-18T09:44:17.456Z,16.80
2023-05-18T09:45:18.148Z,16.81
2023-05-18T09:46:17.508Z,16.82
2023-05-18T09:47:18.135Z,16.84
2023-05-18T09:48:17.401Z,16.91
2023-05-18T09:49:18.107Z,17.00
2023-05-18T09:50:17.484Z,17.05
2023-05-18T09:51:18.475Z,17.05
2023-05-18T09:52:17.772Z,17.02
2023-05-18T09:53:18.124Z,17.00
2023-05-18T09:54:17.342Z,16.99
2023-05-18T09:55:18.102Z,17.00
2023-05-18T09:56:18.267Z,17.05
2023-05-18T09:57:18.237Z,17.05
2023-05-18T09:58:17.307Z,17.09
2023-05-18T09:59:18.051Z,17.10
2023-05-18T10:00:17.270Z,17.14
2023-05-18T10:01:17.979Z,17.14
2023-05-18T10:02:17.283Z,17.15
2023-05-18T10:03:17.972Z,17.12
2023-05-18T10:04:17.299Z,17.12
2023-05-18T10:05:18.786Z,17.12
2023-05-18T10:06:17.239Z,17.14
2023-05-18T10:07:17.286Z,17.14
2023-05-18T10:08:17.186Z,17.14
2023-05-18T10:09:17.314Z,17.18
2023-05-18T10:10:17.195Z,17.21
2023-05-18T10:11:17.867Z,17.25
2023-05-18T10:12:17.173Z,17.28
2023-05-18T10:13:17.980Z,17.32
2023-05-18T10:14:17.131Z,17.36
2023-05-18T10:15:17.848Z,17.43
2023-05-18T10:16:17.189Z,17.47
2023-05-18T10:17:18.026Z,17.51
2023-05-18T10:18:17.132Z,17.57
2023-05-18T10:19:17.904Z,17.58
2023-05-18T10:20:17.145Z,17.65
2023-05-18T10:21:17.131Z,17.66
2023-05-18T10:22:17.033Z,17.66
2023-05-18T10:23:17.111Z,17.68
2023-05-18T10:24:16.988Z,17.70
2023-05-18T10:25:17.056Z,17.76
2023-05-18T10:26:17.082Z,17.81
2023-05-18T10:27:17.093Z,17.84
2023-05-18T10:28:17.060Z,17.91
2023-05-18T10:29:17.017Z,17.94
2023-05-18T10:30:17.052Z,17.94
2023-05-18T10:31:17.056Z,17.95
2023-05-18T10:32:17.094Z,17.95
2023-05-18T10:33:28.017Z,17.96
2023-05-18T10:34:17.892Z,18.04
2023-05-18T10:35:16.973Z,18.10
2023-05-18T10:36:16.981Z,18.11
2023-05-18T10:37:16.881Z,18.16
2023-05-18T10:38:18.452Z,18.20
2023-05-18T10:39:16.975Z,18.31
2023-05-18T10:40:17.782Z,18.36
2023-05-18T10:41:16.915Z,18.42
2023-05-18T10:42:18.539Z,18.46
2023-05-18T10:43:19.084Z,18.44
2023-05-18T10:44:17.487Z,18.47
2023-05-18T10:45:16.795Z,18.53
2023-05-18T10:46:16.829Z,18.60
2023-05-18T10:47:16.971Z,18.65
2023-05-18T10:48:16.799Z,18.71
2023-05-18T10:49:16.751Z,18.75
2023-05-18T10:50:16.763Z,18.79
2023-05-18T10:51:16.715Z,18.89
2023-05-18T10:52:16.734Z,18.93
2023-05-18T10:53:16.738Z,18.99
2023-05-18T10:54:16.674Z,18.94
2023-05-18T10:55:16.699Z,18.89
2023-05-18T10:56:16.664Z,18.86
2023-05-18T10:57:16.706Z,18.87
2023-05-18T10:58:16.618Z,18.89
2023-05-18T10:59:16.627Z,18.91
2023-05-18T11:00:16.696Z,18.93
2023-05-18T11:01:16.628Z,19.01
2023-05-18T11:02:16.613Z,19.05
2023-05-18T11:03:16.651Z,19.02
2023-05-18T11:04:16.584Z,19.07
2023-05-18T11:05:16.693Z,19.09
2023-05-18T11:06:16.565Z,19.09
2023-05-18T11:07:16.599Z,19.06
2023-05-18T11:08:16.511Z,19.09
2023-05-18T11:09:16.531Z,19.21
2023-05-18T11:10:16.487Z,19.27
2023-05-18T11:11:18.857Z,19.27
2023-05-18T11:12:16.479Z,19.27
2023-05-18T11:13:16.467Z,19.25
2023-05-18T11:14:16.466Z,19.24
2023-05-18T11:15:16.445Z,19.25
2023-05-18T11:16:16.511Z,19.30
2023-05-18T11:17:16.421Z,19.38
2023-05-18T11:18:16.471Z,19.45
2023-05-18T11:19:16.458Z,19.47
2023-05-18T11:20:16.384Z,19.55
2023-05-18T11:21:16.414Z,19.57
2023-05-18T11:22:16.366Z,19.67
2023-05-18T11:23:16.354Z,19.72
2023-05-18T11:24:16.377Z,19.82
2023-05-18T11:25:16.351Z,19.92
2023-05-18T11:26:16.309Z,19.97
2023-05-18T11:27:16.324Z,20.04
2023-05-18T11:28:16.315Z,20.15
2023-05-18T11:29:16.288Z,20.25
2023-05-18T11:30:16.306Z,20.33
2023-05-18T11:31:16.275Z,20.31
2023-05-18T11:32:22.691Z,20.33
2023-05-18T11:33:17.375Z,20.41
2023-05-18T11:34:16.240Z,20.44
2023-05-18T11:35:16.236Z,20.53
2023-05-18T11:36:16.272Z,20.60
2023-05-18T11:37:16.285Z,20.57
2023-05-18T11:38:16.201Z,20.57
2023-05-18T11:39:16.182Z,20.57
2023-05-18T11:40:16.199Z,20.57
2023-05-18T11:41:16.210Z,20.57
2023-05-18T11:42:16.158Z,20.60
2023-05-18T11:43:16.135Z,20.68
2023-05-18T11:44:16.185Z,20.76
2023-05-18T11:45:16.131Z,20.87
2023-05-18T11:46:16.115Z,20.96
2023-05-18T11:47:16.101Z,21.01
2023-05-18T11:48:16.205Z,21.03
2023-05-18T11:49:16.311Z,21.11
2023-05-18T11:50:16.083Z,21.15
2023-05-18T11:51:16.053Z,21.15
2023-05-18T11:52:16.037Z,21.21
2023-05-18T11:53:16.023Z,21.27
2023-05-18T11:54:16.051Z,21.27
2023-05-18T11:55:16.039Z,21.27
2023-05-18T11:56:16.006Z,21.31
2023-05-18T11:57:15.984Z,21.37
2023-05-18T11:58:15.993Z,21.42
2023-05-18T11:59:15.971Z,21.51
2023-05-18T12:00:15.998Z,21.56
2023-05-18T12:01:15.959Z,21.75
2023-05-18T12:02:15.995Z,21.82
2023-05-18T12:03:15.984Z,21.82
2023-05-18T12:04:16.039Z,21.93
2023-05-18T12:05:15.945Z,22.06
2023-05-18T12:06:15.889Z,22.04
2023-05-18T12:07:15.866Z,21.98
2023-05-18T12:08:15.962Z,21.94
2023-05-18T12:09:15.863Z,21.91
2023-05-18T12:10:15.857Z,21.98
2023-05-18T12:11:15.823Z,22.04
2023-05-18T12:12:15.826Z,22.15
2023-05-18T12:13:15.837Z,22.46
2023-05-18T12:14:15.795Z,22.60
2023-05-18T12:15:17.243Z,22.84
2023-05-18T12:16:15.809Z,22.96
2023-05-18T12:17:15.770Z,22.96
2023-05-18T12:18:15.833Z,23.14
2023-05-18T12:19:15.816Z,23.45
2023-05-18T12:20:15.742Z,23.57
2023-05-18T12:21:15.744Z,23.78
2023-05-18T12:22:15.716Z,23.92
2023-05-18T12:23:15.704Z,24.14
2023-05-18T12:24:15.685Z,24.67
2023-05-18T12:25:15.700Z,25.36
2023-05-18T12:26:15.660Z,26.13
2023-05-18T12:27:15.648Z,26.96
2023-05-18T12:28:15.664Z,27.21
2023-05-18T12:29:15.623Z,26.78
2023-05-18T12:30:15.648Z,26.36
2023-05-18T12:31:15.636Z,25.94
2023-05-18T12:32:15.617Z,26.60
2023-05-18T12:33:15.618Z,27.43
2023-05-18T12:34:15.593Z,27.68
2023-05-18T12:35:15.567Z,27.66
2023-05-18T12:36:15.570Z,27.53
2023-05-18T12:37:15.550Z,27.16
2023-05-18T12:38:15.583Z,26.73
2023-05-18T12:39:15.540Z,26.28
2023-05-18T12:40:15.535Z,25.90
2023-05-18T12:41:15.508Z,26.23
2023-05-18T12:42:15.526Z,26.60
2023-05-18T12:43:15.497Z,27.42
2023-05-18T12:44:15.491Z,27.27
2023-05-18T12:45:15.489Z,29.20
2023-05-18T12:46:15.479Z,30.86
2023-05-18T12:47:15.466Z,32.19
2023-05-18T12:48:15.585Z,32.87
2023-05-18T12:49:15.423Z,31.85
2023-05-18T12:50:15.452Z,30.79
2023-05-18T12:51:15.412Z,29.86
2023-05-18T12:52:15.408Z,29.10
2023-05-18T12:53:15.377Z,28.45
2023-05-18T12:54:15.383Z,28.35
2023-05-18T12:55:15.374Z,27.98
2023-05-18T12:56:15.364Z,29.69
2023-05-18T12:57:15.332Z,29.63
2023-05-18T12:58:15.336Z,30.76
2023-05-18T12:59:15.325Z,30.83
2023-05-18T13:00:15.313Z,31.88
2023-05-18T13:01:15.338Z,33.57
2023-05-18T13:02:15.282Z,34.95
2023-05-18T13:03:16.555Z,36.38
2023-05-18T13:04:15.467Z,36.60
2023-05-18T13:05:15.259Z,35.13
2023-05-18T13:06:15.255Z,34.12